createdAt,value
2022-12-04T00:01:14.319Z,4.50
2022-12-04T00:03:41.651Z,4.50
2022-12-04T00:06:14.129Z,4.50
2022-12-04T00:08:41.518Z,4.50
2022-12-04T00:11:09.849Z,4.50
2022-12-04T00:13:37.214Z,4.50
2022-12-04T00:16:05.603Z,4.50
2022-12-04T00:18:32.529Z,4.60
2022-12-04T00:20:59.205Z,4.60
2022-12-04T00:23:25.766Z,4.50
2022-12-04T00:25:53.201Z,4.50
2022-12-04T00:28:20.031Z,4.50
2022-12-04T00:30:47.287Z,4.50
2022-12-04T00:33:14.446Z,4.50
2022-12-04T00:35:41.270Z,4.50
2022-12-04T00:38:07.954Z,4.50
2022-12-04T00:40:34.842Z,4.50
2022-12-04T00:43:01.587Z,4.60
2022-12-04T00:45:28.408Z,4.50
2022-12-04T00:47:55.358Z,4.50
2022-12-04T00:50:22.049Z,4.50
2022-12-04T00:52:48.634Z,4.50
2022-12-04T00:55:15.334Z,4.50
2022-12-04T00:57:42.033Z,4.50
2022-12-04T01:00:09.072Z,4.50
2022-12-04T01:02:35.759Z,4.50
2022-12-04T01:05:02.520Z,4.50
2022-12-04T01:07:29.290Z,4.60
2022-12-04T01:09:56.170Z,4.50
2022-12-04T01:12:22.990Z,4.50
2022-12-04T01:14:49.742Z,4.40
2022-12-04T01:17:16.443Z,4.40
2022-12-04T01:19:43.064Z,4.50
2022-12-04T01:22:09.685Z,4.40
2022-12-04T01:24:36.349Z,4.40
2022-12-04T01:27:02.978Z,4.50
2022-12-04T01:29:29.622Z,4.50
2022-12-04T01:31:56.378Z,4.50
2022-12-04T01:34:25.118Z,4.50
2022-12-04T01:36:52.523Z,4.50
2022-12-04T01:39:19.298Z,4.50
2022-12-04T01:41:46.098Z,4.50
2022-12-04T01:44:21.012Z,4.50
2022-12-04T01:46:54.581Z,4.50
2022-12-04T01:49:31.200Z,4.40
2022-12-04T01:52:06.042Z,4.40
2022-12-04T01:54:40.855Z,4.40
2022-12-04T01:57:13.960Z,4.50
2022-12-04T02:00:02.252Z,4.50
2022-12-04T02:02:34.511Z,4.50
2022-12-04T02:05:03.860Z,4.50
2022-12-04T02:07:30.719Z,4.50
2022-12-04T02:10:03.554Z,4.50
2022-12-04T02:12:37.003Z,4.50
2022-12-04T02:15:23.882Z,4.50
2022-12-04T02:18:16.529Z,4.50
2022-12-04T02:21:08.926Z,4.50
2022-12-04T02:24:00.136Z,4.50
2022-12-04T02:26:42.073Z,4.50
2022-12-04T02:29:27.653Z,4.50
2022-12-04T02:32:22.718Z,4.50
2022-12-04T02:35:06.978Z,4.50
2022-12-04T02:37:40.889Z,4.50
2022-12-04T02:40:38.515Z,4.50
2022-12-04T02:43:25.070Z,4.50
2022-12-04T02:46:00.262Z,4.50
2022-12-04T02:48:30.391Z,4.50
2022-12-04T02:50:59.829Z,4.50
2022-12-04T02:53:32.587Z,4.50
2022-12-04T02:56:11.315Z,4.60
2022-12-04T02:59:00.701Z,4.50
2022-12-04T03:01:34.586Z,4.60
2022-12-04T03:04:11.129Z,4.60
2022-12-04T03:06:41.721Z,4.50
2022-12-04T03:09:32.271Z,4.50
2022-12-04T03:12:21.136Z,4.50
2022-12-04T03:15:02.730Z,4.50
2022-12-04T03:17:51.926Z,4.50
2022-12-04T03:20:19.644Z,4.50
2022-12-04T03:22:51.786Z,4.50
2022-12-04T03:25:18.569Z,4.50
2022-12-04T03:27:58.372Z,4.50
2022-12-04T03:30:25.057Z,4.50
2022-12-04T03:33:04.732Z,4.50
2022-12-04T03:35:55.614Z,4.60
2022-12-04T03:38:41.012Z,4.60
2022-12-04T03:41:29.211Z,4.60
2022-12-04T03:44:15.138Z,4.60
2022-12-04T03:47:00.809Z,4.60
2022-12-04T03:50:13.774Z,4.60
2022-12-04T03:52:54.535Z,4.60
2022-12-04T03:55:29.352Z,4.60
2022-12-04T03:58:03.354Z,4.60
2022-12-04T04:00:32.411Z,4.60
2022-12-04T04:03:06.977Z,4.60
2022-12-04T04:05:35.269Z,4.50
2022-12-04T04:08:23.134Z,4.60
2022-12-04T04:10:52.145Z,4.60
2022-12-04T04:13:45.587Z,4.60
2022-12-04T04:16:35.074Z,4.70
2022-12-04T04:19:21.486Z,4.60
2022-12-04T04:22:10.919Z,4.60
2022-12-04T04:24:42.177Z,4.60
2022-12-04T04:27:08.766Z,4.60
2022-12-04T04:29:36.130Z,4.60
2022-12-04T04:32:18.894Z,4.60
2022-12-04T04:34:59.398Z,4.60
2022-12-04T04:37:40.034Z,4.60
2022-12-04T04:40:17.395Z,4.60
2022-12-04T04:42:52.149Z,4.60
2022-12-04T04:45:43.999Z,4.50
2022-12-04T04:48:20.681Z,4.50
2022-12-04T04:50:48.048Z,4.60
2022-12-04T04:53:24.451Z,4.50
2022-12-04T04:55:51.055Z,4.50
2022-12-04T04:58:19.906Z,4.50
2022-12-04T05:00:53.673Z,4.50
2022-12-04T05:03:20.346Z,4.50
2022-12-04T05:05:46.959Z,4.50
2022-12-04T05:08:13.567Z,4.50
2022-12-04T05:10:40.187Z,4.50
2022-12-04T05:13:06.782Z,4.50
2022-12-04T05:15:33.435Z,4.50
2022-12-04T05:18:00.025Z,4.40
2022-12-04T05:20:26.611Z,4.50
2022-12-04T05:22:53.490Z,4.50
2022-12-04T05:25:20.155Z,4.40
2022-12-04T05:27:46.751Z,4.50
2022-12-04T05:30:13.496Z,4.50
2022-12-04T05:32:40.115Z,4.50
2022-12-04T05:35:10.989Z,4.50
2022-12-04T05:37:39.733Z,4.50
2022-12-04T05:40:07.846Z,4.50
2022-12-04T05:42:34.753Z,4.50
2022-12-04T05:45:01.419Z,4.50
2022-12-04T05:47:28.027Z,4.50
2022-12-04T05:49:54.914Z,4.50
2022-12-04T05:52:21.746Z,4.50
2022-12-04T05:54:48.334Z,4.50
2022-12-04T05:57:15.070Z,4.50
2022-12-04T05:59:41.707Z,4.50
2022-12-04T06:02:08.449Z,4.50
2022-12-04T06:04:38.107Z,4.50
2022-12-04T06:07:04.784Z,4.50
2022-12-04T06:09:31.421Z,4.50
2022-12-04T06:11:58.800Z,4.50
2022-12-04T06:14:25.921Z,4.50
2022-12-04T06:16:52.589Z,4.50
2022-12-04T06:19:21.532Z,4.50
2022-12-04T06:21:50.547Z,4.50
2022-12-04T06:24:20.382Z,4.50
2022-12-04T06:27:18.964Z,4.50
2022-12-04T06:29:33.966Z,4.50
2022-12-04T06:32:00.771Z,4.60
2022-12-04T06:34:27.468Z,4.50
2022-12-04T06:36:54.192Z,4.60
2022-12-04T06:39:20.779Z,4.60
2022-12-04T06:41:47.817Z,4.60
2022-12-04T06:44:15.724Z,4.60
2022-12-04T06:46:46.780Z,4.60
2022-12-04T06:49:14.358Z,4.60
2022-12-04T06:51:41.344Z,4.70
2022-12-04T06:54:09.177Z,4.60
2022-12-04T06:56:36.031Z,4.60
2022-12-04T06:59:03.969Z,4.60
2022-12-04T07:01:33.604Z,4.60
2022-12-04T07:04:03.655Z,4.60
2022-12-04T07:06:32.974Z,4.60
2022-12-04T07:09:03.357Z,4.60
2022-12-04T07:11:30.492Z,4.60
2022-12-04T07:13:57.205Z,4.60
2022-12-04T07:16:25.660Z,4.60
2022-12-04T07:18:56.458Z,4.60
2022-12-04T07:21:28.601Z,4.60
2022-12-04T07:23:57.246Z,4.60
2022-12-04T07:26:25.151Z,4.60
2022-12-04T07:28:53.326Z,4.60
2022-12-04T07:31:22.586Z,4.60
2022-12-04T07:33:50.243Z,4.60
2022-12-04T07:36:19.664Z,4.70
2022-12-04T07:38:46.914Z,4.70
2022-12-04T07:41:13.881Z,4.60
2022-12-04T07:43:41.126Z,4.60
2022-12-04T07:46:14.640Z,4.50
2022-12-04T07:48:41.592Z,4.60
2022-12-04T07:51:11.066Z,4.60
2022-12-04T07:53:38.002Z,4.60
2022-12-04T07:56:06.460Z,4.60
2022-12-04T07:58:34.156Z,4.60
2022-12-04T08:01:08.234Z,4.60
2022-12-04T08:03:34.912Z,4.60
2022-12-04T08:06:06.242Z,4.70
2022-12-04T08:08:33.383Z,4.70
2022-12-04T08:11:00.574Z,4.70
2022-12-04T08:13:27.791Z,4.60
2022-12-04T08:15:55.410Z,4.70
2022-12-04T08:18:22.048Z,4.70
2022-12-04T08:20:48.739Z,4.70
2022-12-04T08:23:15.485Z,4.70
2022-12-04T08:25:42.245Z,4.60
2022-12-04T08:28:08.996Z,4.50
2022-12-04T08:30:36.008Z,4.50
2022-12-04T08:33:03.248Z,4.50
2022-12-04T08:35:30.259Z,4.50
2022-12-04T08:37:56.960Z,4.40
2022-12-04T08:40:23.589Z,4.40
2022-12-04T08:42:50.219Z,4.40
2022-12-04T08:45:16.954Z,4.40
2022-12-04T08:47:46.853Z,4.50
2022-12-04T08:50:15.987Z,4.50
2022-12-04T08:52:42.622Z,4.50
2022-12-04T08:55:09.677Z,4.60
2022-12-04T08:57:36.445Z,4.60
2022-12-04T09:00:04.070Z,4.60
2022-12-04T09:02:30.680Z,4.50
2022-12-04T09:04:57.443Z,4.50
2022-12-04T09:07:24.117Z,4.50
2022-12-04T09:09:50.729Z,4.50
2022-12-04T09:12:17.515Z,4.60
2022-12-04T09:14:44.454Z,4.50
2022-12-04T09:17:11.084Z,4.50
2022-12-04T09:19:37.743Z,4.50
2022-12-04T09:22:04.354Z,4.50
2022-12-04T09:24:31.389Z,4.40
2022-12-04T09:26:58.070Z,4.40
2022-12-04T09:29:26.101Z,4.40
2022-12-04T09:31:52.786Z,4.40
2022-12-04T09:34:19.393Z,4.40
2022-12-04T09:36:46.081Z,4.40
2022-12-04T09:39:12.655Z,4.40
2022-12-04T09:42:02.724Z,4.40
2022-12-04T09:44:56.395Z,4.40
2022-12-04T09:47:26.723Z,4.40
2022-12-04T09:50:22.335Z,4.40
2022-12-04T09:53:14.764Z,4.50
2022-12-04T09:55:53.243Z,4.60
2022-12-04T09:58:41.138Z,4.60
2022-12-04T10:01:27.003Z,4.60
2022-12-04T10:03:55.080Z,4.60
2022-12-04T10:07:00.828Z,4.60
2022-12-04T10:09:30.518Z,4.60
2022-12-04T10:12:24.054Z,4.60
2022-12-04T10:15:20.023Z,4.60
2022-12-04T10:18:10.646Z,4.60
2022-12-04T10:20:46.145Z,4.60
2022-12-04T10:23:23.106Z,4.70
2022-12-04T10:25:52.248Z,4.80
2022-12-04T10:28:27.933Z,4.80
2022-12-04T10:30:58.069Z,4.90
2022-12-04T10:33:41.781Z,4.90
2022-12-04T10:36:19.431Z,4.90
2022-12-04T10:38:54.045Z,4.90
2022-12-04T10:41:50.406Z,4.90
2022-12-04T10:44:19.426Z,5.00
2022-12-04T10:46:47.306Z,5.00
2022-12-04T10:49:14.050Z,5.10
2022-12-04T10:51:42.901Z,5.10
2022-12-04T10:54:32.859Z,5.10
2022-12-04T10:57:01.491Z,5.10
2022-12-04T10:59:29.306Z,5.10
2022-12-04T11:02:18.617Z,5.20
2022-12-04T11:04:56.004Z,5.20
2022-12-04T11:07:49.860Z,5.20
2022-12-04T11:10:43.149Z,5.30
2022-12-04T11:13:12.914Z,5.30
2022-12-04T11:15:44.246Z,5.30
2022-12-04T11:18:19.030Z,5.40
2022-12-04T11:20:57.359Z,5.40
2022-12-04T11:23:25.661Z,5.40
2022-12-04T11:25:59.345Z,5.50
2022-12-04T11:28:47.621Z,5.40
2022-12-04T11:31:20.649Z,5.50
2022-12-04T11:33:55.687Z,5.50
2022-12-04T11:36:29.062Z,5.50
2022-12-04T11:39:15.494Z,5.50
2022-12-04T11:41:42.418Z,5.50
2022-12-04T11:44:33.611Z,5.60
2022-12-04T11:47:02.971Z,5.50
2022-12-04T11:49:31.543Z,5.50
2022-12-04T11:52:23.024Z,5.50
2022-12-04T11:54:55.583Z,5.50
2022-12-04T11:58:04.603Z,5.60
2022-12-04T12:00:33.038Z,5.60
2022-12-04T12:03:05.591Z,5.60
2022-12-04T12:05:46.418Z,5.60
2022-12-04T12:08:13.071Z,5.60
2022-12-04T12:11:02.682Z,5.60
2022-12-04T12:13:51.951Z,5.60
2022-12-04T12:16:41.863Z,5.60
2022-12-04T12:19:38.746Z,5.60
2022-12-04T12:22:21.707Z,5.60
2022-12-04T12:24:54.602Z,5.60
2022-12-04T12:27:40.407Z,5.60
2022-12-04T12:30:30.505Z,5.60
2022-12-04T12:33:18.420Z,5.70
2022-12-04T12:36:03.696Z,5.70
2022-12-04T12:38:38.979Z,5.80
2022-12-04T12:41:13.425Z,5.80
2022-12-04T12:43:42.264Z,5.80
2022-12-04T12:46:17.971Z,5.80
2022-12-04T12:48:58.933Z,5.80
2022-12-04T12:51:46.078Z,5.80
2022-12-04T12:54:28.504Z,5.90
2022-12-04T12:57:02.467Z,5.90
2022-12-04T12:59:29.597Z,5.90
2022-12-04T13:02:01.065Z,6.00
2022-12-04T13:04:37.217Z,5.90
2022-12-04T13:07:47.153Z,6.00
2022-12-04T13:10:20.188Z,6.00
2022-12-04T13:13:28.878Z,6.00
2022-12-04T13:16:21.740Z,6.00
2022-12-04T13:18:58.367Z,6.00
2022-12-04T13:21:31.728Z,6.00
2022-12-04T13:24:24.351Z,6.00
2022-12-04T13:27:04.096Z,6.00
2022-12-04T13:29:54.561Z,6.10
2022-12-04T13:32:59.052Z,6.10
2022-12-04T13:35:47.315Z,6.10
2022-12-04T13:38:36.135Z,6.00
2022-12-04T13:41:06.471Z,6.10
2022-12-04T13:43:42.424Z,6.10
2022-12-04T13:46:21.398Z,6.10
2022-12-04T13:48:48.417Z,6.20
2022-12-04T13:51:36.221Z,6.10
2022-12-04T13:54:10.579Z,6.10
2022-12-04T13:56:39.282Z,6.10
2022-12-04T13:59:19.943Z,6.10
2022-12-04T14:01:49.379Z,6.10
2022-12-04T14:04:53.102Z,6.10
2022-12-04T14:07:33.706Z,6.10
2022-12-04T14:10:04.865Z,6.10
2022-12-04T14:12:39.102Z,6.20
2022-12-04T14:15:08.733Z,6.20
2022-12-04T14:17:38.515Z,6.20
2022-12-04T14:20:25.124Z,6.20
2022-12-04T14:22:52.097Z,6.20
2022-12-04T14:25:18.679Z,6.20
2022-12-04T14:27:51.844Z,6.20
2022-12-04T14:30:36.516Z,6.30
2022-12-04T14:33:09.364Z,6.20
2022-12-04T14:35:46.056Z,6.20
2022-12-04T14:38:20.406Z,6.30
2022-12-04T14:40:53.686Z,6.20
2022-12-04T14:43:25.501Z,6.20
2022-12-04T14:46:04.521Z,6.20
2022-12-04T14:49:06.014Z,6.10
2022-12-04T14:51:54.049Z,6.10
2022-12-04T14:54:48.527Z,6.10
2022-12-04T14:57:15.114Z,6.10
2022-12-04T14:59:50.735Z,6.00
2022-12-04T15:02:26.703Z,6.00
2022-12-04T15:04:54.091Z,6.00
2022-12-04T15:07:24.131Z,6.00
2022-12-04T15:10:14.416Z,6.00
2022-12-04T15:13:07.290Z,6.00
2022-12-04T15:15:33.944Z,6.00
2022-12-04T15:18:09.608Z,6.00
2022-12-04T15:20:56.639Z,5.90
2022-12-04T15:23:38.631Z,5.90
2022-12-04T15:26:16.585Z,5.80
2022-12-04T15:28:59.827Z,5.80
2022-12-04T15:31:46.777Z,5.90
2022-12-04T15:34:21.615Z,5.80
2022-12-04T15:36:57.037Z,5.80
2022-12-04T15:39:26.953Z,5.80
2022-12-04T15:42:14.535Z,5.80
2022-12-04T15:45:13.252Z,5.80
2022-12-04T15:47:42.911Z,5.80
2022-12-04T15:50:15.796Z,5.70
2022-12-04T15:52:51.322Z,5.80
2022-12-04T15:55:19.359Z,5.70
2022-12-04T15:57:55.718Z,5.70
2022-12-04T16:00:34.489Z,5.70
2022-12-04T16:03:02.792Z,5.60
2022-12-04T16:05:35.386Z,5.60
2022-12-04T16:08:22.323Z,5.60
2022-12-04T16:10:58.057Z,5.70
2022-12-04T16:13:30.924Z,5.70
2022-12-04T16:16:00.024Z,5.70
2022-12-04T16:18:28.264Z,5.70
2022-12-04T16:20:55.333Z,5.70
2022-12-04T16:23:25.025Z,5.70
2022-12-04T16:25:53.673Z,5.80
2022-12-04T16:28:20.753Z,5.70
2022-12-04T16:30:47.620Z,5.80
2022-12-04T16:33:15.713Z,5.70
2022-12-04T16:35:42.857Z,5.70
2022-12-04T16:38:15.540Z,5.70
2022-12-04T16:40:43.160Z,5.60
2022-12-04T16:43:13.371Z,5.40
2022-12-04T16:45:48.811Z,5.50
2022-12-04T16:48:15.640Z,5.50
2022-12-04T16:50:43.022Z,5.50
2022-12-04T16:53:17.536Z,5.50
2022-12-04T16:55:46.811Z,5.40
2022-12-04T16:58:13.808Z,5.40
2022-12-04T17:00:43.558Z,5.50
2022-12-04T17:03:18.714Z,5.50
2022-12-04T17:05:45.556Z,5.60
2022-12-04T17:08:12.215Z,5.60
2022-12-04T17:10:38.834Z,5.60
2022-12-04T17:13:05.429Z,5.60
2022-12-04T17:15:32.107Z,5.60
2022-12-04T17:17:58.839Z,5.60
2022-12-04T17:20:25.590Z,5.60
2022-12-04T17:22:52.206Z,5.70
2022-12-04T17:25:18.890Z,5.70
2022-12-04T17:27:45.782Z,5.70
2022-12-04T17:30:13.696Z,5.70
2022-12-04T17:32:40.351Z,5.70
2022-12-04T17:35:08.176Z,5.70
2022-12-04T17:37:36.016Z,5.70
2022-12-04T17:40:02.604Z,5.70
2022-12-04T17:42:29.187Z,5.80
2022-12-04T17:44:56.028Z,5.70
2022-12-04T17:47:23.558Z,5.80
2022-12-04T17:49:50.244Z,5.80
2022-12-04T17:52:18.638Z,5.80
2022-12-04T17:54:45.404Z,5.80
2022-12-04T17:57:12.058Z,5.80
2022-12-04T17:59:38.801Z,5.70
2022-12-04T18:02:05.385Z,5.70
2022-12-04T18:04:32.024Z,5.80
2022-12-04T18:06:58.605Z,5.70
2022-12-04T18:09:25.171Z,5.70
2022-12-04T18:11:51.794Z,5.70
2022-12-04T18:14:22.092Z,5.70
2022-12-04T18:16:53.406Z,5.80
2022-12-04T18:19:23.456Z,5.70
2022-12-04T18:21:50.652Z,5.70
2022-12-04T18:24:18.256Z,5.70
2022-12-04T18:26:47.923Z,5.70
2022-12-04T18:29:17.804Z,5.70
2022-12-04T18:31:45.384Z,5.70
2022-12-04T18:34:13.063Z,5.70
2022-12-04T18:36:40.808Z,5.70
2022-12-04T18:39:11.869Z,5.70
2022-12-04T18:41:38.567Z,5.80
2022-12-04T18:44:05.694Z,5.70
2022-12-04T18:46:32.976Z,5.70
2022-12-04T18:49:00.179Z,5.70
2022-12-04T18:51:39.285Z,5.70
2022-12-04T18:54:10.528Z,5.70
2022-12-04T18:56:37.700Z,5.80
2022-12-04T18:59:16.954Z,5.80
2022-12-04T19:01:43.820Z,5.80
2022-12-04T19:04:12.872Z,5.80
2022-12-04T19:06:41.744Z,5.80
2022-12-04T19:09:11.193Z,5.80
2022-12-04T19:11:39.279Z,5.70
2022-12-04T19:14:14.805Z,5.70
2022-12-04T19:16:44.833Z,5.70
2022-12-04T19:19:12.624Z,5.70
2022-12-04T19:21:39.378Z,5.60
2022-12-04T19:24:06.489Z,5.60
2022-12-04T19:26:34.594Z,5.50
2022-12-04T19:29:02.401Z,5.50
2022-12-04T19:31:32.876Z,5.50
2022-12-04T19:33:59.991Z,5.50
2022-12-04T19:36:29.394Z,5.40
2022-12-04T19:39:00.305Z,5.30
2022-12-04T19:41:30.089Z,5.40
2022-12-04T19:43:58.949Z,5.40
2022-12-04T19:46:27.906Z,5.30
2022-12-04T19:48:57.998Z,5.30
2022-12-04T19:51:25.880Z,5.40
2022-12-04T19:53:54.729Z,5.40
2022-12-04T19:56:26.887Z,5.50
2022-12-04T19:58:55.947Z,5.50
2022-12-04T20:01:28.467Z,5.50
2022-12-04T20:03:56.318Z,5.50
2022-12-04T20:06:25.406Z,5.50
2022-12-04T20:09:00.906Z,5.40
2022-12-04T20:11:29.161Z,5.50
2022-12-04T20:13:56.768Z,5.40
2022-12-04T20:16:28.145Z,5.20
2022-12-04T20:18:55.387Z,5.20
2022-12-04T20:21:26.233Z,5.30
2022-12-04T20:23:54.195Z,5.30
2022-12-04T20:26:26.247Z,5.40
2022-12-04T20:28:55.127Z,5.30
2022-12-04T20:31:27.601Z,5.30
2022-12-04T20:33:56.176Z,5.30
2022-12-04T20:36:25.915Z,5.30
2022-12-04T20:38:55.249Z,5.30
2022-12-04T20:41:22.404Z,5.10
2022-12-04T20:43:49.061Z,5.20
2022-12-04T20:46:23.095Z,5.20
2022-12-04T20:48:51.711Z,5.20
2022-12-04T20:51:23.951Z,5.10
2022-12-04T20:53:51.490Z,5.10
2022-12-04T20:56:21.666Z,5.10
2022-12-04T20:58:48.297Z,5.20
2022-12-04T21:01:18.168Z,5.30
2022-12-04T21:03:45.239Z,5.30
2022-12-04T21:06:26.360Z,5.30
2022-12-04T21:08:57.865Z,5.30
2022-12-04T21:11:27.453Z,5.30
2022-12-04T21:14:14.466Z,5.10
2022-12-04T21:16:41.717Z,5.10
2022-12-04T21:19:10.670Z,5.10
2022-12-04T21:21:37.937Z,5.10
2022-12-04T21:24:06.294Z,5.10
2022-12-04T21:26:33.797Z,5.10
2022-12-04T21:29:02.023Z,5.00
2022-12-04T21:31:29.480Z,5.00
2022-12-04T21:33:57.739Z,5.00
2022-12-04T21:36:25.699Z,5.00
2022-12-04T21:38:52.615Z,5.10
2022-12-04T21:41:38.278Z,5.10
2022-12-04T21:44:06.908Z,5.10
2022-12-04T21:46:33.587Z,5.10
2022-12-04T21:49:00.435Z,5.00
2022-12-04T21:51:55.679Z,5.00
2022-12-04T21:54:14.598Z,5.00
2022-12-04T21:56:41.300Z,5.00
2022-12-04T21:59:07.933Z,4.90
2022-12-04T22:01:35.096Z,4.90
2022-12-04T22:04:01.788Z,5.00
2022-12-04T22:06:28.539Z,5.00
2022-12-04T22:08:55.556Z,5.10
2022-12-04T22:11:22.417Z,5.20
2022-12-04T22:13:49.096Z,5.20
2022-12-04T22:16:18.307Z,5.20
2022-12-04T22:18:45.723Z,5.30
2022-12-04T22:21:16.055Z,5.30
2022-12-04T22:23:42.819Z,5.40
2022-12-04T22:26:29.126Z,5.40
2022-12-04T22:28:56.720Z,5.40
2022-12-04T22:31:26.591Z,5.40
2022-12-04T22:33:55.579Z,5.40
2022-12-04T22:36:25.263Z,5.30
2022-12-04T22:39:08.735Z,5.30
2022-12-04T22:41:35.907Z,5.20
2022-12-04T22:44:03.244Z,5.20
2022-12-04T22:46:30.078Z,5.20
2022-12-04T22:48:58.728Z,5.20
2022-12-04T22:51:25.415Z,5.10
2022-12-04T22:53:55.145Z,5.00
2022-12-04T22:56:24.675Z,5.00
2022-12-04T22:58:51.861Z,5.00
2022-12-04T23:01:24.085Z,5.10
2022-12-04T23:03:51.583Z,5.00
2022-12-04T23:06:20.278Z,5.00
2022-12-04T23:08:47.347Z,5.00
2022-12-04T23:11:19.162Z,5.00
2022-12-04T23:13:51.174Z,5.00
2022-12-04T23:16:20.480Z,5.10
2022-12-04T23:18:47.501Z,5.00
2022-12-04T23:21:15.227Z,5.00
2022-12-04T23:23:44.051Z,5.00
2022-12-04T23:26:13.700Z,4.90
2022-12-04T23:28:40.934Z,5.00
2022-12-04T23:31:08.204Z,4.90
2022-12-04T23:33:35.047Z,5.00
2022-12-04T23:36:03.198Z,5.00
2022-12-04T23:38:30.449Z,4.90
2022-12-04T23:41:08.590Z,4.90
2022-12-04T23:43:35.306Z,4.90
2022-12-04T23:46:07.257Z,4.90
2022-12-04T23:48:37.672Z,4.90
2022-12-04T23:51:04.259Z,4.90
2022-12-04T23:53:30.906Z,5.00
2022-12-04T23:56:16.688Z,4.90
2022-12-04T23:58:45.048Z,4.90
